Hauptseite
METAR-TAF:

METAR-TAF

Flughäfen :

Shepherd Bay, Nunavut, Kanada

Breite: 68-49N, Länge: 093-26W, Höhe: 51 m

Beobachtung

Neuester Wetterbericht von vor 48 Minuten, um 17:00 UTC
Wind 6 kt aus West/Südwest, variierte zwischen Süd/Südwest und Nordwest
Temperatur 2°C
Luftfeuchtigkeit 93%
Luftdruck 1014 hPa
Aufgelockert bewölkt in der Höhe von 1000 ft
Durchbrochene Bewölkung in der Höhe von 2800 ft
Geschlossene Wolkendecke in der Höhe von 4900 ft

METAR: CYUS 231700Z AUTO 25006KT 200V310 ////SM //// SCT010 BKN028 OVC049 02/01 A2995

Zeit: 11:48 (17:48 UTC)


TAF: fehlend

Wetterbeobachtungen und Prognosen von mehr als 4000 Flughäfen (METAR und TAF Bericht).

Die verfügbaren Stationen werden durch gelbe und rote Markierungen auf der Karte dargestellt.

Führen Sie die Maus auf sie, um den Namen der Station zu sehen.

Darauf klicken, um die Beobachtung von Wetterbeobachtungen und Prognosen zu sehen.

Um die Karte zu ändern : klicken Sie auf den grünen Tasten mit einem schwarzen Kreuz Zum Vergrößern, auf den grünen Button mit einem Gedankenstrich zu verkleinern, oder auf die grünen Pfeile für benachbarte Karten.


METAR-TAF: